sensor_id;sensor_type;location;lat;lon;timestamp;pressure;altitude;pressure_sealevel;temperature;humidity
79368;BME280;68834;53.152;17.962;2023-04-03T00:01:00;102287.33;;;-0.48;65.00
79368;BME280;68834;53.152;17.962;2023-04-03T00:03:27;102288.14;;;-0.45;65.23
79368;BME280;68834;53.152;17.962;2023-04-03T00:05:54;102284.48;;;-0.42;65.09
79368;BME280;68834;53.152;17.962;2023-04-03T00:08:21;102285.66;;;-0.39;64.94
79368;BME280;68834;53.152;17.962;2023-04-03T00:10:48;102286.14;;;-0.36;65.15
79368;BME280;68834;53.152;17.962;2023-04-03T00:13:15;102286.55;;;-0.34;65.04
79368;BME280;68834;53.152;17.962;2023-04-03T00:15:42;102285.02;;;-0.34;65.03
79368;BME280;68834;53.152;17.962;2023-04-03T00:18:09;102284.48;;;-0.34;65.23
79368;BME280;68834;53.152;17.962;2023-04-03T00:20:36;102284.29;;;-0.35;65.40
79368;BME280;68834;53.152;17.962;2023-04-03T00:23:03;102280.96;;;-0.36;65.32
79368;BME280;68834;53.152;17.962;2023-04-03T00:25:29;102279.16;;;-0.39;65.44
79368;BME280;68834;53.152;17.962;2023-04-03T00:27:56;102277.34;;;-0.40;65.68
79368;BME280;68834;53.152;17.962;2023-04-03T00:30:23;102282.05;;;-0.43;65.77
79368;BME280;68834;53.152;17.962;2023-04-03T00:32:51;102280.40;;;-0.45;65.71
79368;BME280;68834;53.152;17.962;2023-04-03T00:35:19;102279.73;;;-0.49;65.79
79368;BME280;68834;53.152;17.962;2023-04-03T00:37:48;102278.22;;;-0.52;65.93
79368;BME280;68834;53.152;17.962;2023-04-03T00:40:17;102276.34;;;-0.56;65.93
79368;BME280;68834;53.152;17.962;2023-04-03T00:42:46;102278.89;;;-0.60;66.23
79368;BME280;68834;53.152;17.962;2023-04-03T00:45:30;102276.00;;;-0.63;66.27
79368;BME280;68834;53.152;17.962;2023-04-03T00:47:57;102273.27;;;-0.66;66.33
79368;BME280;68834;53.152;17.962;2023-04-03T00:50:27;102278.26;;;-0.70;66.47
79368;BME280;68834;53.152;17.962;2023-04-03T00:52:56;102279.81;;;-0.74;66.58
79368;BME280;68834;53.152;17.962;2023-04-03T00:55:24;102279.66;;;-0.77;66.68
79368;BME280;68834;53.152;17.962;2023-04-03T00:57:52;102280.33;;;-0.77;66.72
79368;BME280;68834;53.152;17.962;2023-04-03T01:00:20;102274.77;;;-0.75;66.69
79368;BME280;68834;53.152;17.962;2023-04-03T01:02:50;102282.16;;;-0.71;66.73
79368;BME280;68834;53.152;17.962;2023-04-03T01:05:17;102277.05;;;-0.66;66.55
79368;BME280;68834;53.152;17.962;2023-04-03T01:07:46;102282.88;;;-0.63;66.58
79368;BME280;68834;53.152;17.962;2023-04-03T01:10:15;102280.88;;;-0.61;66.70
79368;BME280;68834;53.152;17.962;2023-04-03T01:12:43;102280.92;;;-0.60;66.69
79368;BME280;68834;53.152;17.962;2023-04-03T01:15:20;102279.19;;;-0.61;66.66
79368;BME280;68834;53.152;17.962;2023-04-03T01:17:50;102281.70;;;-0.62;66.83
79368;BME280;68834;53.152;17.962;2023-04-03T01:25:42;102283.52;;;-0.71;67.10
79368;BME280;68834;53.152;17.962;2023-04-03T01:28:15;102291.09;;;-0.75;67.27
79368;BME280;68834;53.152;17.962;2023-04-03T01:33:15;102289.22;;;-0.82;67.35
79368;BME280;68834;53.152;17.962;2023-04-03T01:35:41;102293.52;;;-0.85;67.46
79368;BME280;68834;53.152;17.962;2023-04-03T01:38:08;102296.61;;;-0.89;67.40
79368;BME280;68834;53.152;17.962;2023-04-03T01:40:35;102296.79;;;-0.92;67.63
79368;BME280;68834;53.152;17.962;2023-04-03T01:43:03;102295.42;;;-0.96;67.68
79368;BME280;68834;53.152;17.962;2023-04-03T01:45:29;102298.41;;;-0.98;67.86
79368;BME280;68834;53.152;17.962;2023-04-03T01:47:56;102296.55;;;-1.01;67.77
79368;BME280;68834;53.152;17.962;2023-04-03T01:50:24;102297.63;;;-1.04;67.99
79368;BME280;68834;53.152;17.962;2023-04-03T01:52:51;102297.45;;;-1.04;67.97
79368;BME280;68834;53.152;17.962;2023-04-03T01:55:18;102304.28;;;-1.01;67.77
79368;BME280;68834;53.152;17.962;2023-04-03T01:57:45;102302.08;;;-0.97;67.82
79368;BME280;68834;53.152;17.962;2023-04-03T02:00:12;102305.77;;;-0.91;67.86
79368;BME280;68834;53.152;17.962;2023-04-03T02:02:39;102305.45;;;-0.87;67.80
79368;BME280;68834;53.152;17.962;2023-04-03T02:05:07;102303.48;;;-0.85;67.89
79368;BME280;68834;53.152;17.962;2023-04-03T02:07:33;102301.44;;;-0.84;67.95
79368;BME280;68834;53.152;17.962;2023-04-03T02:10:00;102303.85;;;-0.85;67.91
79368;BME280;68834;53.152;17.962;2023-04-03T02:12:27;102302.27;;;-0.85;68.01
79368;BME280;68834;53.152;17.962;2023-04-03T02:14:53;102300.80;;;-0.87;67.90
79368;BME280;68834;53.152;17.962;2023-04-03T02:17:20;102307.05;;;-0.89;67.92
79368;BME280;68834;53.152;17.962;2023-04-03T02:19:47;102304.55;;;-0.91;67.93
79368;BME280;68834;53.152;17.962;2023-04-03T02:22:14;102302.55;;;-0.94;68.28
79368;BME280;68834;53.152;17.962;2023-04-03T02:24:41;102303.45;;;-0.97;68.32
79368;BME280;68834;53.152;17.962;2023-04-03T02:27:08;102310.17;;;-1.00;68.31
79368;BME280;68834;53.152;17.962;2023-04-03T02:29:34;102308.08;;;-1.04;68.26
79368;BME280;68834;53.152;17.962;2023-04-03T02:32:01;102306.55;;;-1.07;68.57
79368;BME280;68834;53.152;17.962;2023-04-03T02:34:28;102311.39;;;-1.10;68.62
79368;BME280;68834;53.152;17.962;2023-04-03T02:36:56;102314.35;;;-1.13;68.45
79368;BME280;68834;53.152;17.962;2023-04-03T02:39:22;102313.66;;;-1.16;68.90
79368;BME280;68834;53.152;17.962;2023-04-03T02:41:49;102318.09;;;-1.21;68.59
79368;BME280;68834;53.152;17.962;2023-04-03T02:44:20;102323.43;;;-1.20;68.51
79368;BME280;68834;53.152;17.962;2023-04-03T02:46:46;102326.45;;;-1.18;68.88
79368;BME280;68834;53.152;17.962;2023-04-03T02:49:13;102325.90;;;-1.15;68.64
79368;BME280;68834;53.152;17.962;2023-04-03T02:51:40;102328.46;;;-1.12;68.76
79368;BME280;68834;53.152;17.962;2023-04-03T02:54:07;102328.94;;;-1.09;68.87
79368;BME280;68834;53.152;17.962;2023-04-03T02:56:34;102330.33;;;-1.06;68.84
79368;BME280;68834;53.152;17.962;2023-04-03T02:59:01;102333.35;;;-1.03;68.72
79368;BME280;68834;53.152;17.962;2023-04-03T03:01:28;102335.08;;;-1.03;68.97
79368;BME280;68834;53.152;17.962;2023-04-03T03:04:01;102340.15;;;-1.04;68.70
79368;BME280;68834;53.152;17.962;2023-04-03T03:06:28;102337.45;;;-1.07;68.92
79368;BME280;68834;53.152;17.962;2023-04-03T03:08:54;102338.03;;;-1.09;68.82
79368;BME280;68834;53.152;17.962;2023-04-03T03:11:21;102338.53;;;-1.13;69.06
79368;BME280;68834;53.152;17.962;2023-04-03T03:13:48;102341.46;;;-1.16;69.43
79368;BME280;68834;53.152;17.962;2023-04-03T03:16:14;102342.86;;;-1.19;69.48
79368;BME280;68834;53.152;17.962;2023-04-03T03:18:41;102343.89;;;-1.23;69.28
79368;BME280;68834;53.152;17.962;2023-04-03T03:21:09;102343.02;;;-1.27;69.44
79368;BME280;68834;53.152;17.962;2023-04-03T03:23:36;102347.14;;;-1.30;69.41
79368;BME280;68834;53.152;17.962;2023-04-03T03:26:05;102343.91;;;-1.33;69.20
79368;BME280;68834;53.152;17.962;2023-04-03T03:28:35;102345.28;;;-1.36;69.42
79368;BME280;68834;53.152;17.962;2023-04-03T03:31:03;102347.34;;;-1.40;70.03
79368;BME280;68834;53.152;17.962;2023-04-03T03:33:30;102351.13;;;-1.43;69.96
79368;BME280;68834;53.152;17.962;2023-04-03T03:35:57;102355.30;;;-1.46;70.07
79368;BME280;68834;53.152;17.962;2023-04-03T03:38:24;102352.55;;;-1.46;70.09
79368;BME280;68834;53.152;17.962;2023-04-03T03:40:51;102351.81;;;-1.43;69.86
79368;BME280;68834;53.152;17.962;2023-04-03T03:43:19;102355.25;;;-1.39;69.92
79368;BME280;68834;53.152;17.962;2023-04-03T03:45:54;102357.14;;;-1.36;69.66
79368;BME280;68834;53.152;17.962;2023-04-03T03:48:22;102360.39;;;-1.33;69.78
79368;BME280;68834;53.152;17.962;2023-04-03T03:50:49;102354.80;;;-1.31;69.79
79368;BME280;68834;53.152;17.962;2023-04-03T03:53:17;102363.29;;;-1.29;69.69
79368;BME280;68834;53.152;17.962;2023-04-03T03:55:44;102365.52;;;-1.30;69.60
79368;BME280;68834;53.152;17.962;2023-04-03T03:58:11;102365.77;;;-1.31;69.68
79368;BME280;68834;53.152;17.962;2023-04-03T04:00:38;102364.13;;;-1.33;70.08
79368;BME280;68834;53.152;17.962;2023-04-03T04:03:05;102369.30;;;-1.36;69.79
79368;BME280;68834;53.152;17.962;2023-04-03T04:05:31;102370.17;;;-1.39;70.03
79368;BME280;68834;53.152;17.962;2023-04-03T04:07:59;102371.57;;;-1.42;70.55
79368;BME280;68834;53.152;17.962;2023-04-03T04:10:26;102372.76;;;-1.46;70.35
79368;BME280;68834;53.152;17.962;2023-04-03T04:12:54;102374.34;;;-1.49;70.25
79368;BME280;68834;53.152;17.962;2023-04-03T04:15:23;102377.41;;;-1.53;70.47
79368;BME280;68834;53.152;17.962;2023-04-03T04:17:52;102381.00;;;-1.56;70.02
79368;BME280;68834;53.152;17.962;2023-04-03T04:20:19;102383.44;;;-1.59;70.63
79368;BME280;68834;53.152;17.962;2023-04-03T04:22:47;102389.86;;;-1.60;70.45
79368;BME280;68834;53.152;17.962;2023-04-03T04:25:13;102389.79;;;-1.62;70.56
79368;BME280;68834;53.152;17.962;2023-04-03T04:27:40;102390.67;;;-1.61;70.69
79368;BME280;68834;53.152;17.962;2023-04-03T04:30:08;102389.54;;;-1.57;70.74
79368;BME280;68834;53.152;17.962;2023-04-03T04:32:35;102390.52;;;-1.51;70.65
79368;BME280;68834;53.152;17.962;2023-04-03T04:35:03;102391.03;;;-1.44;70.69
79368;BME280;68834;53.152;17.962;2023-04-03T04:37:31;102386.75;;;-1.37;70.37
79368;BME280;68834;53.152;17.962;2023-04-03T04:39:59;102389.40;;;-1.32;70.36
79368;BME280;68834;53.152;17.962;2023-04-03T04:42:26;102390.25;;;-1.29;70.67
79368;BME280;68834;53.152;17.962;2023-04-03T04:44:52;102386.96;;;-1.26;70.17
79368;BME280;68834;53.152;17.962;2023-04-03T04:47:19;102391.53;;;-1.24;70.31
79368;BME280;68834;53.152;17.962;2023-04-03T04:49:47;102393.02;;;-1.22;70.16
79368;BME280;68834;53.152;17.962;2023-04-03T04:52:14;102396.01;;;-1.20;70.50
79368;BME280;68834;53.152;17.962;2023-04-03T04:54:41;102399.83;;;-1.19;69.99
79368;BME280;68834;53.152;17.962;2023-04-03T04:57:09;102400.59;;;-1.17;70.29
79368;BME280;68834;53.152;17.962;2023-04-03T04:59:37;102403.44;;;-1.15;70.04
79368;BME280;68834;53.152;17.962;2023-04-03T05:02:06;102404.30;;;-1.12;70.43
79368;BME280;68834;53.152;17.962;2023-04-03T05:04:33;102409.46;;;-1.08;70.11
79368;BME280;68834;53.152;17.962;2023-04-03T05:07:05;102413.13;;;-1.03;70.33
79368;BME280;68834;53.152;17.962;2023-04-03T05:09:33;102414.01;;;-1.00;70.10
79368;BME280;68834;53.152;17.962;2023-04-03T05:12:01;102412.32;;;-0.95;70.05
79368;BME280;68834;53.152;17.962;2023-04-03T05:14:30;102417.70;;;-0.90;70.16
79368;BME280;68834;53.152;17.962;2023-04-03T05:17:00;102418.21;;;-0.87;70.13
79368;BME280;68834;53.152;17.962;2023-04-03T05:19:28;102420.81;;;-0.83;69.97
79368;BME280;68834;53.152;17.962;2023-04-03T05:21:55;102417.80;;;-0.75;69.91
79368;BME280;68834;53.152;17.962;2023-04-03T05:24:23;102421.74;;;-0.64;69.79
79368;BME280;68834;53.152;17.962;2023-04-03T05:26:49;102419.90;;;-0.52;69.52
79368;BME280;68834;53.152;17.962;2023-04-03T05:29:16;102414.29;;;-0.39;69.12
79368;BME280;68834;53.152;17.962;2023-04-03T05:31:43;102415.73;;;-0.27;68.91
79368;BME280;68834;53.152;17.962;2023-04-03T05:34:11;102416.80;;;-0.15;68.77
79368;BME280;68834;53.152;17.962;2023-04-03T05:36:38;102414.92;;;-0.04;68.75
79368;BME280;68834;53.152;17.962;2023-04-03T05:39:06;102414.56;;;0.08;68.41
79368;BME280;68834;53.152;17.962;2023-04-03T05:41:33;102414.14;;;0.18;68.17
79368;BME280;68834;53.152;17.962;2023-04-03T05:44:00;102415.24;;;0.27;68.16
79368;BME280;68834;53.152;17.962;2023-04-03T05:46:27;102417.56;;;0.37;67.79
79368;BME280;68834;53.152;17.962;2023-04-03T05:48:55;102417.80;;;0.46;67.53
79368;BME280;68834;53.152;17.962;2023-04-03T05:51:29;102414.88;;;0.55;67.31
79368;BME280;68834;53.152;17.962;2023-04-03T05:54:10;102418.02;;;0.63;66.86
79368;BME280;68834;53.152;17.962;2023-04-03T05:56:39;102415.80;;;0.72;66.79
79368;BME280;68834;53.152;17.962;2023-04-03T05:59:05;102415.15;;;0.81;66.55
79368;BME280;68834;53.152;17.962;2023-04-03T06:01:34;102418.49;;;0.91;66.01
79368;BME280;68834;53.152;17.962;2023-04-03T06:04:01;102419.90;;;1.04;65.97
79368;BME280;68834;53.152;17.962;2023-04-03T06:06:43;102417.86;;;1.17;65.32
79368;BME280;68834;53.152;17.962;2023-04-03T06:09:11;102416.20;;;1.32;64.71
79368;BME280;68834;53.152;17.962;2023-04-03T06:11:38;102415.10;;;1.48;64.40
79368;BME280;68834;53.152;17.962;2023-04-03T06:14:05;102416.75;;;1.64;64.02
79368;BME280;68834;53.152;17.962;2023-04-03T06:16:33;102421.34;;;1.85;63.55
79368;BME280;68834;53.152;17.962;2023-04-03T06:19:00;102419.27;;;2.03;63.49
79368;BME280;68834;53.152;17.962;2023-04-03T06:21:27;102421.15;;;2.12;62.59
79368;BME280;68834;53.152;17.962;2023-04-03T06:23:54;102427.66;;;2.20;62.31
79368;BME280;68834;53.152;17.962;2023-04-03T06:26:21;102427.14;;;2.30;62.09
79368;BME280;68834;53.152;17.962;2023-04-03T06:28:48;102429.48;;;2.43;61.64
79368;BME280;68834;53.152;17.962;2023-04-03T06:31:15;102432.33;;;2.50;61.25
79368;BME280;68834;53.152;17.962;2023-04-03T06:33:43;102430.13;;;2.55;61.00
79368;BME280;68834;53.152;17.962;2023-04-03T06:36:11;102432.89;;;2.60;60.16
79368;BME280;68834;53.152;17.962;2023-04-03T06:38:38;102434.93;;;2.70;60.13
79368;BME280;68834;53.152;17.962;2023-04-03T06:41:05;102434.63;;;2.81;59.64
79368;BME280;68834;53.152;17.962;2023-04-03T06:43:31;102433.16;;;2.94;58.85
79368;BME280;68834;53.152;17.962;2023-04-03T06:45:58;102437.08;;;3.08;58.47
79368;BME280;68834;53.152;17.962;2023-04-03T06:48:25;102438.63;;;3.18;58.08
79368;BME280;68834;53.152;17.962;2023-04-03T06:50:52;102442.33;;;3.36;56.01
79368;BME280;68834;53.152;17.962;2023-04-03T06:53:19;102444.55;;;3.69;55.63
79368;BME280;68834;53.152;17.962;2023-04-03T06:55:46;102443.77;;;4.00;55.00
79368;BME280;68834;53.152;17.962;2023-04-03T06:58:13;102443.91;;;4.23;54.89
79368;BME280;68834;53.152;17.962;2023-04-03T07:00:41;102451.61;;;4.45;54.54
79368;BME280;68834;53.152;17.962;2023-04-03T07:03:08;102459.52;;;4.68;54.15
79368;BME280;68834;53.152;17.962;2023-04-03T07:05:34;102459.61;;;4.98;53.42
79368;BME280;68834;53.152;17.962;2023-04-03T07:08:01;102456.29;;;5.24;52.83
79368;BME280;68834;53.152;17.962;2023-04-03T07:10:28;102462.27;;;5.36;50.63
79368;BME280;68834;53.152;17.962;2023-04-03T07:12:55;102463.92;;;5.38;51.41
79368;BME280;68834;53.152;17.962;2023-04-03T07:15:21;102465.51;;;5.39;50.67
79368;BME280;68834;53.152;17.962;2023-04-03T07:17:48;102460.05;;;5.74;49.68
79368;BME280;68834;53.152;17.962;2023-04-03T07:20:15;102464.54;;;6.11;49.80
79368;BME280;68834;53.152;17.962;2023-04-03T07:22:42;102462.90;;;5.91;48.82
79368;BME280;68834;53.152;17.962;2023-04-03T07:25:08;102468.48;;;5.78;48.50
79368;BME280;68834;53.152;17.962;2023-04-03T07:27:35;102468.41;;;5.67;48.36
79368;BME280;68834;53.152;17.962;2023-04-03T07:30:02;102474.09;;;5.50;48.21
79368;BME280;68834;53.152;17.962;2023-04-03T07:32:29;102475.04;;;5.77;47.88
79368;BME280;68834;53.152;17.962;2023-04-03T07:34:56;102474.54;;;6.52;46.77
79368;BME280;68834;53.152;17.962;2023-04-03T07:37:22;102470.25;;;8.29;44.70
79368;BME280;68834;53.152;17.962;2023-04-03T07:39:49;102469.95;;;8.92;42.11
79368;BME280;68834;53.152;17.962;2023-04-03T07:42:15;102467.30;;;9.50;42.55
79368;BME280;68834;53.152;17.962;2023-04-03T07:44:42;102466.16;;;9.62;40.97
79368;BME280;68834;53.152;17.962;2023-04-03T07:47:09;102473.62;;;9.57;40.71
79368;BME280;68834;53.152;17.962;2023-04-03T07:49:36;102464.71;;;9.82;37.99
79368;BME280;68834;53.152;17.962;2023-04-03T07:52:06;102469.30;;;9.39;39.03
79368;BME280;68834;53.152;17.962;2023-04-03T07:54:35;102470.59;;;9.25;38.59
79368;BME280;68834;53.152;17.962;2023-04-03T07:57:02;102471.31;;;9.29;37.70
79368;BME280;68834;53.152;17.962;2023-04-03T07:59:28;102471.39;;;9.91;36.99
79368;BME280;68834;53.152;17.962;2023-04-03T08:01:55;102468.71;;;10.13;36.45
79368;BME280;68834;53.152;17.962;2023-04-03T08:04:22;102465.80;;;10.70;35.85
79368;BME280;68834;53.152;17.962;2023-04-03T08:06:49;102468.30;;;11.24;35.47
79368;BME280;68834;53.152;17.962;2023-04-03T08:09:16;102467.78;;;11.26;34.86
79368;BME280;68834;53.152;17.962;2023-04-03T08:11:43;102466.55;;;11.11;34.56
79368;BME280;68834;53.152;17.962;2023-04-03T08:14:11;102473.30;;;10.60;34.10
79368;BME280;68834;53.152;17.962;2023-04-03T08:16:44;102477.79;;;10.10;34.39
79368;BME280;68834;53.152;17.962;2023-04-03T08:19:11;102478.79;;;9.72;34.42
79368;BME280;68834;53.152;17.962;2023-04-03T08:21:40;102488.14;;;9.37;34.60
79368;BME280;68834;53.152;17.962;2023-04-03T08:24:08;102485.52;;;8.97;33.92
79368;BME280;68834;53.152;17.962;2023-04-03T08:26:35;102488.84;;;8.64;34.88
79368;BME280;68834;53.152;17.962;2023-04-03T08:29:03;102487.76;;;8.33;34.91
79368;BME280;68834;53.152;17.962;2023-04-03T08:31:29;102483.21;;;8.06;35.08
79368;BME280;68834;53.152;17.962;2023-04-03T08:33:57;102482.99;;;8.03;36.19
79368;BME280;68834;53.152;17.962;2023-04-03T08:36:27;102481.50;;;8.21;35.78
79368;BME280;68834;53.152;17.962;2023-04-03T08:38:55;102480.32;;;8.83;35.36
79368;BME280;68834;53.152;17.962;2023-04-03T08:41:35;102479.86;;;9.50;35.67
79368;BME280;68834;53.152;17.962;2023-04-03T08:44:17;102475.96;;;10.30;35.25
79368;BME280;68834;53.152;17.962;2023-04-03T08:49:41;102474.21;;;11.79;31.91
79368;BME280;68834;53.152;17.962;2023-04-03T08:52:27;102481.55;;;11.95;30.57
79368;BME280;68834;53.152;17.962;2023-04-03T08:55:00;102465.80;;;11.82;29.94
79368;BME280;68834;53.152;17.962;2023-04-03T08:57:48;102467.65;;;12.12;30.40
79368;BME280;68834;53.152;17.962;2023-04-03T09:00:20;102474.02;;;12.43;30.01
79368;BME280;68834;53.152;17.962;2023-04-03T09:02:50;102470.32;;;12.74;29.30
79368;BME280;68834;53.152;17.962;2023-04-03T09:05:32;102470.23;;;12.89;29.00
79368;BME280;68834;53.152;17.962;2023-04-03T09:08:09;102471.87;;;13.05;27.35
79368;BME280;68834;53.152;17.962;2023-04-03T09:10:40;102465.27;;;12.94;27.00
79368;BME280;68834;53.152;17.962;2023-04-03T09:13:23;102466.58;;;12.83;26.98
79368;BME280;68834;53.152;17.962;2023-04-03T09:15:53;102461.86;;;12.81;26.38
79368;BME280;68834;53.152;17.962;2023-04-03T09:18:28;102471.08;;;12.67;27.18
79368;BME280;68834;53.152;17.962;2023-04-03T09:21:22;102476.73;;;12.23;27.29
79368;BME280;68834;53.152;17.962;2023-04-03T09:23:58;102475.96;;;11.72;27.00
79368;BME280;68834;53.152;17.962;2023-04-03T09:29:07;102469.98;;;12.00;27.40
79368;BME280;68834;53.152;17.962;2023-04-03T09:31:40;102469.84;;;12.33;28.55
79368;BME280;68834;53.152;17.962;2023-04-03T09:36:53;102474.37;;;12.99;27.08
79368;BME280;68834;53.152;17.962;2023-04-03T09:39:22;102471.48;;;13.12;27.88
79368;BME280;68834;53.152;17.962;2023-04-03T09:44:26;102481.87;;;12.79;26.93
79368;BME280;68834;53.152;17.962;2023-04-03T09:46:53;102484.60;;;12.30;27.05
79368;BME280;68834;53.152;17.962;2023-04-03T09:49:19;102482.41;;;12.03;27.98
79368;BME280;68834;53.152;17.962;2023-04-03T09:51:47;102483.55;;;12.24;28.12
79368;BME280;68834;53.152;17.962;2023-04-03T09:54:34;102480.09;;;12.56;27.63
79368;BME280;68834;53.152;17.962;2023-04-03T09:57:11;102476.20;;;12.89;27.50
79368;BME280;68834;53.152;17.962;2023-04-03T09:59:43;102476.64;;;13.01;26.76
79368;BME280;68834;53.152;17.962;2023-04-03T10:02:22;102461.77;;;13.18;26.75
79368;BME280;68834;53.152;17.962;2023-04-03T10:04:50;102467.38;;;13.22;26.77
79368;BME280;68834;53.152;17.962;2023-04-03T10:07:33;102476.13;;;12.99;26.48
79368;BME280;68834;53.152;17.962;2023-04-03T10:10:15;102473.14;;;12.73;26.99
79368;BME280;68834;53.152;17.962;2023-04-03T10:12:44;102482.59;;;12.46;27.16
79368;BME280;68834;53.152;17.962;2023-04-03T10:15:15;102484.45;;;12.21;27.02
79368;BME280;68834;53.152;17.962;2023-04-03T10:17:58;102481.45;;;12.28;26.71
79368;BME280;68834;53.152;17.962;2023-04-03T10:20:40;102475.79;;;12.71;27.00
79368;BME280;68834;53.152;17.962;2023-04-03T10:23:24;102462.25;;;13.25;26.11
79368;BME280;68834;53.152;17.962;2023-04-03T10:34:43;102475.70;;;13.37;25.56
79368;BME280;68834;53.152;17.962;2023-04-03T10:37:30;102469.44;;;13.66;25.35
79368;BME280;68834;53.152;17.962;2023-04-03T10:40:23;102468.88;;;14.02;25.27
79368;BME280;68834;53.152;17.962;2023-04-03T10:43:27;102453.23;;;14.30;25.23
79368;BME280;68834;53.152;17.962;2023-04-03T10:46:02;102444.56;;;14.72;25.08
79368;BME280;68834;53.152;17.962;2023-04-03T10:48:51;102460.33;;;14.78;24.57
79368;BME280;68834;53.152;17.962;2023-04-03T10:51:39;102466.48;;;14.53;24.38
79368;BME280;68834;53.152;17.962;2023-04-03T10:54:12;102462.36;;;14.95;24.65
79368;BME280;68834;53.152;17.962;2023-04-03T10:56:42;102459.15;;;15.30;23.64
79368;BME280;68834;53.152;17.962;2023-04-03T10:59:36;102454.59;;;15.77;23.62
79368;BME280;68834;53.152;17.962;2023-04-03T11:04:37;102452.55;;;15.83;22.61
79368;BME280;68834;53.152;17.962;2023-04-03T11:07:27;102455.72;;;15.35;22.94
79368;BME280;68834;53.152;17.962;2023-04-03T11:10:00;102459.87;;;14.85;23.21
79368;BME280;68834;53.152;17.962;2023-04-03T11:12:51;102460.80;;;14.29;23.30
79368;BME280;68834;53.152;17.962;2023-04-03T11:15:20;102457.05;;;14.33;23.59
79368;BME280;68834;53.152;17.962;2023-04-03T11:17:54;102456.27;;;14.12;23.86
79368;BME280;68834;53.152;17.962;2023-04-03T11:20:32;102449.23;;;16.07;22.32
79368;BME280;68834;53.152;17.962;2023-04-03T11:23:03;102430.17;;;19.68;19.77
79368;BME280;68834;53.152;17.962;2023-04-03T11:25:34;102423.66;;;22.40;17.68
79368;BME280;68834;53.152;17.962;2023-04-03T11:28:05;102416.88;;;24.65;16.49
79368;BME280;68834;53.152;17.962;2023-04-03T11:36:08;102397.23;;;30.66;13.03
79368;BME280;68834;53.152;17.962;2023-04-03T11:38:43;102399.64;;;29.96;13.39
79368;BME280;68834;53.152;17.962;2023-04-03T11:41:11;102401.11;;;27.65;13.36
79368;BME280;68834;53.152;17.962;2023-04-03T11:43:42;102402.48;;;27.46;13.69
79368;BME280;68834;53.152;17.962;2023-04-03T11:46:09;102399.15;;;28.62;13.15
79368;BME280;68834;53.152;17.962;2023-04-03T11:48:44;102406.80;;;26.93;13.28
79368;BME280;68834;53.152;17.962;2023-04-03T11:53:47;102414.56;;;22.64;15.15
79368;BME280;68834;53.152;17.962;2023-04-03T12:04:17;102421.98;;;19.92;17.39
79368;BME280;68834;53.152;17.962;2023-04-03T12:09:54;102418.08;;;18.34;17.77
79368;BME280;68834;53.152;17.962;2023-04-03T12:12:34;102422.09;;;17.00;18.55
79368;BME280;68834;53.152;17.962;2023-04-03T12:15:21;102427.34;;;15.92;19.38
79368;BME280;68834;53.152;17.962;2023-04-03T12:17:49;102424.74;;;15.52;20.36
79368;BME280;68834;53.152;17.962;2023-04-03T12:23:30;102422.67;;;16.61;19.70
79368;BME280;68834;53.152;17.962;2023-04-03T12:26:21;102418.34;;;15.93;19.73
79368;BME280;68834;53.152;17.962;2023-04-03T12:28:49;102415.87;;;16.76;19.64
79368;BME280;68834;53.152;17.962;2023-04-03T12:31:17;102410.44;;;18.40;19.30
79368;BME280;68834;53.152;17.962;2023-04-03T12:34:03;102394.79;;;20.64;18.37
79368;BME280;68834;53.152;17.962;2023-04-03T12:36:45;102389.35;;;20.90;17.87
79368;BME280;68834;53.152;17.962;2023-04-03T12:39:33;102396.41;;;19.53;17.68
79368;BME280;68834;53.152;17.962;2023-04-03T12:44:53;102409.39;;;16.47;19.12
79368;BME280;68834;53.152;17.962;2023-04-03T12:47:27;102406.92;;;15.44;20.31
79368;BME280;68834;53.152;17.962;2023-04-03T12:49:54;102410.02;;;15.08;20.78
79368;BME280;68834;53.152;17.962;2023-04-03T12:52:37;102407.27;;;15.04;20.86
79368;BME280;68834;53.152;17.962;2023-04-03T12:55:14;102399.73;;;16.86;20.35
79368;BME280;68834;53.152;17.962;2023-04-03T12:57:41;102389.31;;;19.22;19.15
79368;BME280;68834;53.152;17.962;2023-04-03T13:00:31;102381.00;;;19.48;18.37
79368;BME280;68834;53.152;17.962;2023-04-03T13:03:01;102388.41;;;18.31;18.61
79368;BME280;68834;53.152;17.962;2023-04-03T13:05:29;102396.77;;;17.30;18.90
79368;BME280;68834;53.152;17.962;2023-04-03T13:08:04;102399.77;;;16.28;19.31
79368;BME280;68834;53.152;17.962;2023-04-03T13:10:32;102405.36;;;15.32;19.56
79368;BME280;68834;53.152;17.962;2023-04-03T13:13:08;102403.15;;;14.65;20.67
79368;BME280;68834;53.152;17.962;2023-04-03T13:15:46;102403.45;;;14.30;20.96
79368;BME280;68834;53.152;17.962;2023-04-03T13:18:41;102396.67;;;15.52;21.13
79368;BME280;68834;53.152;17.962;2023-04-03T13:21:15;102395.52;;;15.96;20.64
79368;BME280;68834;53.152;17.962;2023-04-03T13:23:46;102392.78;;;15.36;20.52
79368;BME280;68834;53.152;17.962;2023-04-03T13:26:20;102391.02;;;14.76;21.13
79368;BME280;68834;53.152;17.962;2023-04-03T13:28:48;102388.76;;;14.37;21.43
79368;BME280;68834;53.152;17.962;2023-04-03T13:31:22;102383.56;;;15.77;21.12
79368;BME280;68834;53.152;17.962;2023-04-03T13:36:35;102383.29;;;15.26;21.00
79368;BME280;68834;53.152;17.962;2023-04-03T13:41:50;102382.65;;;13.80;21.39
79368;BME280;68834;53.152;17.962;2023-04-03T13:44:26;102384.80;;;13.25;21.94
79368;BME280;68834;53.152;17.962;2023-04-03T13:46:59;102387.61;;;13.06;22.40
79368;BME280;68834;53.152;17.962;2023-04-03T13:49:38;102380.55;;;13.63;22.62
79368;BME280;68834;53.152;17.962;2023-04-03T13:54:47;102387.55;;;13.14;23.10
79368;BME280;68834;53.152;17.962;2023-04-03T13:57:18;102393.91;;;12.62;23.93
79368;BME280;68834;53.152;17.962;2023-04-03T13:59:44;102394.06;;;12.01;24.41
79368;BME280;68834;53.152;17.962;2023-04-03T14:04:46;102401.64;;;11.01;25.80